sensor_id;sensor_type;location;lat;lon;timestamp;P1;durP1;ratioP1;P2;durP2;ratioP2
20772;SDS011;10546;50.674;4.616;2022-08-19T05:25:44;48.35;;;22.90;;
20772;SDS011;10546;50.674;4.616;2022-08-19T05:28:09;40.25;;;22.38;;
20772;SDS011;10546;50.674;4.616;2022-08-19T05:30:35;38.00;;;20.40;;
20772;SDS011;10546;50.674;4.616;2022-08-19T05:33:01;34.03;;;20.02;;
20772;SDS011;10546;50.674;4.616;2022-08-19T05:35:26;33.90;;;19.50;;
20772;SDS011;10546;50.674;4.616;2022-08-19T05:37:53;33.95;;;19.48;;
20772;SDS011;10546;50.674;4.616;2022-08-19T05:40:19;28.95;;;18.85;;
20772;SDS011;10546;50.674;4.616;2022-08-19T05:42:45;38.83;;;19.20;;
20772;SDS011;10546;50.674;4.616;2022-08-19T05:45:11;35.50;;;18.73;;
20772;SDS011;10546;50.674;4.616;2022-08-19T05:47:36;34.67;;;19.48;;
20772;SDS011;10546;50.674;4.616;2022-08-19T05:50:02;35.33;;;19.52;;
20772;SDS011;10546;50.674;4.616;2022-08-19T05:52:31;41.85;;;19.67;;
20772;SDS011;10546;50.674;4.616;2022-08-19T05:54:57;38.15;;;19.70;;
20772;SDS011;10546;50.674;4.616;2022-08-19T05:57:23;32.95;;;18.92;;
20772;SDS011;10546;50.674;4.616;2022-08-19T05:59:49;30.25;;;18.63;;
20772;SDS011;10546;50.674;4.616;2022-08-19T06:02:16;32.38;;;18.75;;
20772;SDS011;10546;50.674;4.616;2022-08-19T06:04:42;29.52;;;17.85;;
20772;SDS011;10546;50.674;4.616;2022-08-19T06:07:07;28.02;;;16.55;;
20772;SDS011;10546;50.674;4.616;2022-08-19T06:09:33;26.95;;;16.40;;
20772;SDS011;10546;50.674;4.616;2022-08-19T06:12:00;26.58;;;16.35;;
20772;SDS011;10546;50.674;4.616;2022-08-19T06:14:27;26.13;;;16.38;;
20772;SDS011;10546;50.674;4.616;2022-08-19T06:16:55;27.98;;;17.65;;
20772;SDS011;10546;50.674;4.616;2022-08-19T06:19:21;26.08;;;16.70;;
20772;SDS011;10546;50.674;4.616;2022-08-19T06:21:49;25.23;;;16.48;;
20772;SDS011;10546;50.674;4.616;2022-08-19T06:24:16;28.63;;;16.48;;
20772;SDS011;10546;50.674;4.616;2022-08-19T06:26:45;30.35;;;17.00;;
20772;SDS011;10546;50.674;4.616;2022-08-19T06:29:14;23.05;;;17.38;;
20772;SDS011;10546;50.674;4.616;2022-08-19T06:31:45;30.13;;;18.60;;
20772;SDS011;10546;50.674;4.616;2022-08-19T06:34:14;27.23;;;17.45;;
20772;SDS011;10546;50.674;4.616;2022-08-19T06:36:42;27.58;;;17.58;;
20772;SDS011;10546;50.674;4.616;2022-08-19T06:39:14;31.17;;;17.90;;
20772;SDS011;10546;50.674;4.616;2022-08-19T06:41:51;30.13;;;18.65;;
20772;SDS011;10546;50.674;4.616;2022-08-19T06:44:20;30.48;;;18.17;;
20772;SDS011;10546;50.674;4.616;2022-08-19T06:46:47;31.23;;;18.10;;
20772;SDS011;10546;50.674;4.616;2022-08-19T06:49:14;28.38;;;16.42;;
20772;SDS011;10546;50.674;4.616;2022-08-19T06:51:46;28.13;;;16.55;;
20772;SDS011;10546;50.674;4.616;2022-08-19T06:54:13;22.38;;;15.00;;
20772;SDS011;10546;50.674;4.616;2022-08-19T06:56:42;21.65;;;15.00;;
20772;SDS011;10546;50.674;4.616;2022-08-19T06:59:11;29.45;;;19.05;;
20772;SDS011;10546;50.674;4.616;2022-08-19T07:01:40;26.30;;;15.57;;
20772;SDS011;10546;50.674;4.616;2022-08-19T07:04:11;24.10;;;15.68;;
20772;SDS011;10546;50.674;4.616;2022-08-19T07:06:37;25.73;;;14.85;;
20772;SDS011;10546;50.674;4.616;2022-08-19T07:09:04;22.23;;;14.18;;
20772;SDS011;10546;50.674;4.616;2022-08-19T07:11:30;23.23;;;13.88;;
20772;SDS011;10546;50.674;4.616;2022-08-19T07:13:57;23.48;;;15.40;;
20772;SDS011;10546;50.674;4.616;2022-08-19T07:16:23;21.17;;;13.40;;
20772;SDS011;10546;50.674;4.616;2022-08-19T07:18:49;19.20;;;12.48;;
20772;SDS011;10546;50.674;4.616;2022-08-19T07:21:20;16.73;;;11.60;;
20772;SDS011;10546;50.674;4.616;2022-08-19T07:23:49;18.08;;;11.77;;
20772;SDS011;10546;50.674;4.616;2022-08-19T07:26:18;16.20;;;10.68;;
20772;SDS011;10546;50.674;4.616;2022-08-19T07:28:47;17.40;;;10.10;;
20772;SDS011;10546;50.674;4.616;2022-08-19T07:31:14;15.23;;;10.10;;
20772;SDS011;10546;50.674;4.616;2022-08-19T07:33:45;17.77;;;10.10;;
20772;SDS011;10546;50.674;4.616;2022-08-19T07:36:13;14.95;;;9.68;;
20772;SDS011;10546;50.674;4.616;2022-08-19T07:38:43;14.90;;;8.70;;
20772;SDS011;10546;50.674;4.616;2022-08-19T07:41:14;13.85;;;9.60;;
20772;SDS011;10546;50.674;4.616;2022-08-19T07:43:42;15.27;;;9.10;;
20772;SDS011;10546;50.674;4.616;2022-08-19T07:46:08;15.07;;;8.40;;
20772;SDS011;10546;50.674;4.616;2022-08-19T07:48:44;17.17;;;11.13;;
20772;SDS011;10546;50.674;4.616;2022-08-19T07:51:16;11.85;;;8.55;;
20772;SDS011;10546;50.674;4.616;2022-08-19T07:53:49;10.93;;;7.20;;
20772;SDS011;10546;50.674;4.616;2022-08-19T07:56:17;11.77;;;7.28;;
20772;SDS011;10546;50.674;4.616;2022-08-19T07:58:48;15.07;;;7.22;;
20772;SDS011;10546;50.674;4.616;2022-08-19T08:01:34;12.93;;;7.07;;
20772;SDS011;10546;50.674;4.616;2022-08-19T08:04:00;11.20;;;6.78;;
20772;SDS011;10546;50.674;4.616;2022-08-19T08:06:44;12.07;;;6.60;;
20772;SDS011;10546;50.674;4.616;2022-08-19T08:09:30;10.48;;;6.47;;
20772;SDS011;10546;50.674;4.616;2022-08-19T08:12:01;10.65;;;5.88;;
20772;SDS011;10546;50.674;4.616;2022-08-19T08:17:07;9.88;;;6.00;;
20772;SDS011;10546;50.674;4.616;2022-08-19T08:19:39;8.93;;;5.35;;
20772;SDS011;10546;50.674;4.616;2022-08-19T08:22:07;6.80;;;5.07;;
20772;SDS011;10546;50.674;4.616;2022-08-19T08:24:34;7.03;;;4.80;;
20772;SDS011;10546;50.674;4.616;2022-08-19T08:27:00;9.80;;;4.75;;
20772;SDS011;10546;50.674;4.616;2022-08-19T08:29:28;8.63;;;4.95;;
20772;SDS011;10546;50.674;4.616;2022-08-19T08:31:55;6.82;;;4.80;;
20772;SDS011;10546;50.674;4.616;2022-08-19T08:34:21;9.38;;;5.07;;
20772;SDS011;10546;50.674;4.616;2022-08-19T08:36:47;9.07;;;4.45;;
20772;SDS011;10546;50.674;4.616;2022-08-19T08:39:13;9.70;;;5.10;;
20772;SDS011;10546;50.674;4.616;2022-08-19T08:47:24;6.78;;;3.78;;
20772;SDS011;10546;50.674;4.616;2022-08-19T08:49:54;7.03;;;3.75;;
20772;SDS011;10546;50.674;4.616;2022-08-19T08:52:28;8.18;;;3.85;;
20772;SDS011;10546;50.674;4.616;2022-08-19T08:55:00;7.40;;;3.55;;
20772;SDS011;10546;50.674;4.616;2022-08-19T09:00:18;7.00;;;4.07;;
20772;SDS011;10546;50.674;4.616;2022-08-19T09:02:46;8.57;;;4.63;;
20772;SDS011;10546;50.674;4.616;2022-08-19T09:05:12;7.20;;;4.10;;
20772;SDS011;10546;50.674;4.616;2022-08-19T09:10:40;3.70;;;3.20;;
20772;SDS011;10546;50.674;4.616;2022-08-19T09:13:13;5.90;;;3.65;;
20772;SDS011;10546;50.674;4.616;2022-08-19T09:16:02;6.05;;;3.83;;
20772;SDS011;10546;50.674;4.616;2022-08-19T09:18:42;5.55;;;4.10;;
20772;SDS011;10546;50.674;4.616;2022-08-19T09:21:09;6.22;;;4.68;;
20772;SDS011;10546;50.674;4.616;2022-08-19T09:23:35;6.25;;;4.00;;
20772;SDS011;10546;50.674;4.616;2022-08-19T09:26:05;6.45;;;3.63;;
20772;SDS011;10546;50.674;4.616;2022-08-19T09:28:32;6.05;;;3.30;;
20772;SDS011;10546;50.674;4.616;2022-08-19T09:30:58;6.40;;;4.35;;
20772;SDS011;10546;50.674;4.616;2022-08-19T09:33:23;8.77;;;4.38;;
20772;SDS011;10546;50.674;4.616;2022-08-19T09:35:49;10.38;;;4.63;;
20772;SDS011;10546;50.674;4.616;2022-08-19T09:38:15;9.52;;;5.43;;
20772;SDS011;10546;50.674;4.616;2022-08-19T09:40:41;9.63;;;5.30;;
20772;SDS011;10546;50.674;4.616;2022-08-19T09:43:06;8.40;;;5.15;;
20772;SDS011;10546;50.674;4.616;2022-08-19T09:45:32;10.43;;;5.82;;
20772;SDS011;10546;50.674;4.616;2022-08-19T09:47:58;7.85;;;5.07;;
20772;SDS011;10546;50.674;4.616;2022-08-19T09:50:24;6.70;;;4.97;;
20772;SDS011;10546;50.674;4.616;2022-08-19T09:52:50;8.32;;;3.75;;
20772;SDS011;10546;50.674;4.616;2022-08-19T09:58:09;4.63;;;3.85;;
20772;SDS011;10546;50.674;4.616;2022-08-19T10:00:36;6.15;;;4.43;;
20772;SDS011;10546;50.674;4.616;2022-08-19T10:03:03;8.38;;;4.15;;
20772;SDS011;10546;50.674;4.616;2022-08-19T10:05:29;9.13;;;4.50;;
20772;SDS011;10546;50.674;4.616;2022-08-19T10:08:13;9.07;;;4.95;;
20772;SDS011;10546;50.674;4.616;2022-08-19T10:10:42;6.85;;;5.45;;
20772;SDS011;10546;50.674;4.616;2022-08-19T10:13:09;9.50;;;6.03;;
20772;SDS011;10546;50.674;4.616;2022-08-19T10:18:52;10.63;;;6.57;;
20772;SDS011;10546;50.674;4.616;2022-08-19T10:21:23;12.27;;;7.50;;
20772;SDS011;10546;50.674;4.616;2022-08-19T10:23:51;12.65;;;8.00;;
20772;SDS011;10546;50.674;4.616;2022-08-19T10:26:22;12.07;;;8.95;;
20772;SDS011;10546;50.674;4.616;2022-08-19T10:28:49;15.32;;;9.63;;
20772;SDS011;10546;50.674;4.616;2022-08-19T10:31:20;17.10;;;10.50;;
20772;SDS011;10546;50.674;4.616;2022-08-19T10:33:48;14.02;;;10.23;;
20772;SDS011;10546;50.674;4.616;2022-08-19T10:36:17;14.30;;;8.73;;
20772;SDS011;10546;50.674;4.616;2022-08-19T10:38:46;15.88;;;8.77;;
20772;SDS011;10546;50.674;4.616;2022-08-19T10:41:18;11.57;;;8.32;;
20772;SDS011;10546;50.674;4.616;2022-08-19T10:43:50;13.80;;;7.75;;
20772;SDS011;10546;50.674;4.616;2022-08-19T10:46:19;10.52;;;7.57;;
20772;SDS011;10546;50.674;4.616;2022-08-19T10:48:47;11.23;;;7.18;;
20772;SDS011;10546;50.674;4.616;2022-08-19T10:51:13;11.07;;;7.75;;
20772;SDS011;10546;50.674;4.616;2022-08-19T10:53:58;12.48;;;7.85;;
20772;SDS011;10546;50.674;4.616;2022-08-19T10:56:25;11.18;;;7.65;;
20772;SDS011;10546;50.674;4.616;2022-08-19T10:59:10;12.50;;;7.43;;
20772;SDS011;10546;50.674;4.616;2022-08-19T11:01:38;9.98;;;6.70;;
20772;SDS011;10546;50.674;4.616;2022-08-19T11:04:05;10.23;;;6.80;;
20772;SDS011;10546;50.674;4.616;2022-08-19T11:06:34;12.50;;;6.28;;
20772;SDS011;10546;50.674;4.616;2022-08-19T11:09:01;12.60;;;7.63;;
20772;SDS011;10546;50.674;4.616;2022-08-19T11:11:28;13.23;;;8.40;;
20772;SDS011;10546;50.674;4.616;2022-08-19T11:13:54;13.52;;;7.80;;
20772;SDS011;10546;50.674;4.616;2022-08-19T11:16:21;10.10;;;7.07;;
20772;SDS011;10546;50.674;4.616;2022-08-19T11:18:49;12.68;;;7.60;;
20772;SDS011;10546;50.674;4.616;2022-08-19T11:21:18;14.40;;;9.35;;
20772;SDS011;10546;50.674;4.616;2022-08-19T11:23:46;13.63;;;9.75;;
20772;SDS011;10546;50.674;4.616;2022-08-19T11:26:14;12.02;;;8.15;;
20772;SDS011;10546;50.674;4.616;2022-08-19T11:28:41;10.20;;;7.22;;
20772;SDS011;10546;50.674;4.616;2022-08-19T11:31:14;8.60;;;6.25;;
20772;SDS011;10546;50.674;4.616;2022-08-19T11:33:45;8.43;;;5.65;;
20772;SDS011;10546;50.674;4.616;2022-08-19T11:36:19;12.18;;;6.20;;
20772;SDS011;10546;50.674;4.616;2022-08-19T11:38:55;10.40;;;6.78;;
20772;SDS011;10546;50.674;4.616;2022-08-19T11:41:25;9.48;;;6.55;;
20772;SDS011;10546;50.674;4.616;2022-08-19T11:43:51;10.23;;;7.40;;
20772;SDS011;10546;50.674;4.616;2022-08-19T11:46:20;12.82;;;8.30;;
20772;SDS011;10546;50.674;4.616;2022-08-19T11:48:48;13.18;;;7.80;;
20772;SDS011;10546;50.674;4.616;2022-08-19T11:51:20;11.45;;;8.10;;
20772;SDS011;10546;50.674;4.616;2022-08-19T11:53:50;16.92;;;8.50;;
20772;SDS011;10546;50.674;4.616;2022-08-19T11:56:19;17.08;;;10.35;;
20772;SDS011;10546;50.674;4.616;2022-08-19T11:58:48;16.77;;;11.20;;
20772;SDS011;10546;50.674;4.616;2022-08-19T12:01:17;16.85;;;10.98;;
20772;SDS011;10546;50.674;4.616;2022-08-19T12:03:45;15.23;;;11.38;;
20772;SDS011;10546;50.674;4.616;2022-08-19T12:06:13;19.35;;;11.23;;
20772;SDS011;10546;50.674;4.616;2022-08-19T12:08:42;18.67;;;11.85;;
20772;SDS011;10546;50.674;4.616;2022-08-19T12:11:09;11.98;;;8.55;;
20772;SDS011;10546;50.674;4.616;2022-08-19T12:13:38;12.55;;;7.15;;
20772;SDS011;10546;50.674;4.616;2022-08-19T12:16:12;11.13;;;7.18;;
20772;SDS011;10546;50.674;4.616;2022-08-19T12:18:42;10.50;;;7.10;;
20772;SDS011;10546;50.674;4.616;2022-08-19T12:21:12;11.50;;;8.02;;
20772;SDS011;10546;50.674;4.616;2022-08-19T12:23:43;12.88;;;8.82;;
20772;SDS011;10546;50.674;4.616;2022-08-19T12:26:12;11.93;;;8.13;;
20772;SDS011;10546;50.674;4.616;2022-08-19T12:28:38;14.95;;;8.77;;
20772;SDS011;10546;50.674;4.616;2022-08-19T12:31:07;10.20;;;6.88;;
20772;SDS011;10546;50.674;4.616;2022-08-19T12:33:38;7.95;;;6.22;;
20772;SDS011;10546;50.674;4.616;2022-08-19T12:36:11;9.85;;;5.80;;
20772;SDS011;10546;50.674;4.616;2022-08-19T12:38:38;7.35;;;5.70;;
20772;SDS011;10546;50.674;4.616;2022-08-19T12:41:04;10.32;;;6.95;;
20772;SDS011;10546;50.674;4.616;2022-08-19T12:43:31;9.50;;;6.55;;
20772;SDS011;10546;50.674;4.616;2022-08-19T12:46:01;9.57;;;7.28;;
20772;SDS011;10546;50.674;4.616;2022-08-19T12:48:29;8.02;;;6.63;;
20772;SDS011;10546;50.674;4.616;2022-08-19T12:50:58;8.70;;;5.57;;
20772;SDS011;10546;50.674;4.616;2022-08-19T12:53:47;6.93;;;5.32;;
20772;SDS011;10546;50.674;4.616;2022-08-19T12:56:16;6.10;;;5.05;;
20772;SDS011;10546;50.674;4.616;2022-08-19T12:58:48;8.95;;;6.55;;
20772;SDS011;10546;50.674;4.616;2022-08-19T13:01:15;8.60;;;7.18;;
20772;SDS011;10546;50.674;4.616;2022-08-19T13:03:42;8.65;;;6.18;;
20772;SDS011;10546;50.674;4.616;2022-08-19T13:06:09;7.95;;;6.20;;
20772;SDS011;10546;50.674;4.616;2022-08-19T13:08:35;8.77;;;6.35;;
20772;SDS011;10546;50.674;4.616;2022-08-19T13:11:10;10.27;;;5.85;;
20772;SDS011;10546;50.674;4.616;2022-08-19T13:13:40;7.72;;;6.45;;
20772;SDS011;10546;50.674;4.616;2022-08-19T13:16:08;9.00;;;5.75;;
20772;SDS011;10546;50.674;4.616;2022-08-19T13:18:36;7.03;;;5.55;;
20772;SDS011;10546;50.674;4.616;2022-08-19T13:21:03;7.10;;;5.10;;
20772;SDS011;10546;50.674;4.616;2022-08-19T13:23:33;7.55;;;5.63;;
20772;SDS011;10546;50.674;4.616;2022-08-19T13:26:04;6.97;;;5.72;;
20772;SDS011;10546;50.674;4.616;2022-08-19T13:28:34;6.22;;;5.00;;
20772;SDS011;10546;50.674;4.616;2022-08-19T13:31:19;7.60;;;5.40;;
20772;SDS011;10546;50.674;4.616;2022-08-19T13:34:05;8.30;;;5.45;;
20772;SDS011;10546;50.674;4.616;2022-08-19T13:36:38;5.93;;;4.60;;
20772;SDS011;10546;50.674;4.616;2022-08-19T13:39:12;5.15;;;4.13;;
20772;SDS011;10546;50.674;4.616;2022-08-19T13:41:42;6.70;;;4.15;;
20772;SDS011;10546;50.674;4.616;2022-08-19T13:44:12;6.93;;;4.70;;
20772;SDS011;10546;50.674;4.616;2022-08-19T13:46:47;6.45;;;4.40;;
20772;SDS011;10546;50.674;4.616;2022-08-19T13:49:18;9.07;;;4.53;;
20772;SDS011;10546;50.674;4.616;2022-08-19T13:51:47;8.90;;;5.03;;
20772;SDS011;10546;50.674;4.616;2022-08-19T13:54:14;5.50;;;4.57;;
20772;SDS011;10546;50.674;4.616;2022-08-19T13:56:44;7.75;;;4.40;;
20772;SDS011;10546;50.674;4.616;2022-08-19T13:59:13;5.88;;;4.47;;
20772;SDS011;10546;50.674;4.616;2022-08-19T14:01:42;5.43;;;4.40;;
20772;SDS011;10546;50.674;4.616;2022-08-19T14:04:13;8.15;;;5.03;;
20772;SDS011;10546;50.674;4.616;2022-08-19T14:06:39;5.90;;;4.32;;
20772;SDS011;10546;50.674;4.616;2022-08-19T14:09:05;6.93;;;4.20;;
20772;SDS011;10546;50.674;4.616;2022-08-19T14:11:30;5.72;;;2.50;;
20772;SDS011;10546;50.674;4.616;2022-08-19T14:13:56;2.92;;;2.33;;
20772;SDS011;10546;50.674;4.616;2022-08-19T14:16:22;4.78;;;2.00;;
20772;SDS011;10546;50.674;4.616;2022-08-19T14:18:47;2.35;;;1.60;;
20772;SDS011;10546;50.674;4.616;2022-08-19T14:21:21;5.20;;;1.45;;
20772;SDS011;10546;50.674;4.616;2022-08-19T14:23:48;2.05;;;1.50;;
20772;SDS011;10546;50.674;4.616;2022-08-19T14:26:15;3.33;;;1.95;;
20772;SDS011;10546;50.674;4.616;2022-08-19T14:28:43;3.67;;;1.75;;
20772;SDS011;10546;50.674;4.616;2022-08-19T14:31:10;2.88;;;2.25;;
20772;SDS011;10546;50.674;4.616;2022-08-19T14:33:37;3.45;;;2.20;;
20772;SDS011;10546;50.674;4.616;2022-08-19T14:36:05;5.68;;;2.75;;
20772;SDS011;10546;50.674;4.616;2022-08-19T14:38:31;4.72;;;1.90;;
20772;SDS011;10546;50.674;4.616;2022-08-19T14:41:10;5.72;;;2.10;;
20772;SDS011;10546;50.674;4.616;2022-08-19T14:43:42;3.65;;;2.85;;
20772;SDS011;10546;50.674;4.616;2022-08-19T14:46:14;5.38;;;3.28;;
20772;SDS011;10546;50.674;4.616;2022-08-19T14:48:51;6.85;;;4.82;;
20772;SDS011;10546;50.674;4.616;2022-08-19T14:51:27;6.43;;;4.50;;
20772;SDS011;10546;50.674;4.616;2022-08-19T14:54:04;5.65;;;3.92;;
20772;SDS011;10546;50.674;4.616;2022-08-19T14:57:06;4.40;;;3.55;;
20772;SDS011;10546;50.674;4.616;2022-08-19T14:59:54;4.75;;;3.60;;
20772;SDS011;10546;50.674;4.616;2022-08-19T15:02:54;3.55;;;3.00;;
20772;SDS011;10546;50.674;4.616;2022-08-19T15:05:59;4.88;;;2.47;;
20772;SDS011;10546;50.674;4.616;2022-08-19T15:08:37;10.07;;;2.55;;
20772;SDS011;10546;50.674;4.616;2022-08-19T15:12:06;3.60;;;2.20;;
20772;SDS011;10546;50.674;4.616;2022-08-19T15:14:40;3.65;;;2.17;;
20772;SDS011;10546;50.674;4.616;2022-08-19T15:17:24;3.92;;;1.58;;
20772;SDS011;10546;50.674;4.616;2022-08-19T15:20:23;2.28;;;1.83;;
20772;SDS011;10546;50.674;4.616;2022-08-19T15:23:32;6.68;;;1.80;;
20772;SDS011;10546;50.674;4.616;2022-08-19T15:26:10;4.70;;;2.00;;
20772;SDS011;10546;50.674;4.616;2022-08-19T15:32:43;2.17;;;1.13;;
20772;SDS011;10546;50.674;4.616;2022-08-19T15:35:08;2.58;;;1.15;;
20772;SDS011;10546;50.674;4.616;2022-08-19T15:37:37;1.15;;;0.88;;
20772;SDS011;10546;50.674;4.616;2022-08-19T15:40:04;1.90;;;0.75;;
20772;SDS011;10546;50.674;4.616;2022-08-19T15:45:37;3.33;;;0.95;;
20772;SDS011;10546;50.674;4.616;2022-08-19T15:48:04;2.65;;;0.90;;
20772;SDS011;10546;50.674;4.616;2022-08-19T15:50:35;1.88;;;0.95;;
20772;SDS011;10546;50.674;4.616;2022-08-19T15:53:05;1.25;;;1.00;;
20772;SDS011;10546;50.674;4.616;2022-08-19T15:55:53;3.58;;;2.05;;
20772;SDS011;10546;50.674;4.616;2022-08-19T15:58:56;1.83;;;1.38;;
20772;SDS011;10546;50.674;4.616;2022-08-19T16:02:10;2.08;;;1.55;;
20772;SDS011;10546;50.674;4.616;2022-08-19T16:05:24;4.25;;;1.90;;
20772;SDS011;10546;50.674;4.616;2022-08-19T16:08:09;3.85;;;2.70;;
20772;SDS011;10546;50.674;4.616;2022-08-19T16:10:37;5.18;;;2.33;;
20772;SDS011;10546;50.674;4.616;2022-08-19T16:15:58;6.53;;;3.17;;
20772;SDS011;10546;50.674;4.616;2022-08-19T16:18:24;4.70;;;3.47;;
20772;SDS011;10546;50.674;4.616;2022-08-19T16:20:52;6.03;;;3.17;;
20772;SDS011;10546;50.674;4.616;2022-08-19T16:23:19;4.78;;;2.78;;
20772;SDS011;10546;50.674;4.616;2022-08-19T16:25:44;3.67;;;2.85;;
20772;SDS011;10546;50.674;4.616;2022-08-19T16:28:10;4.72;;;3.38;;
20772;SDS011;10546;50.674;4.616;2022-08-19T16:30:37;4.97;;;3.13;;
20772;SDS011;10546;50.674;4.616;2022-08-19T16:33:10;3.88;;;2.78;;
20772;SDS011;10546;50.674;4.616;2022-08-19T16:35:36;4.15;;;2.33;;
20772;SDS011;10546;50.674;4.616;2022-08-19T16:38:02;5.28;;;2.65;;
20772;SDS011;10546;50.674;4.616;2022-08-19T16:40:28;3.85;;;2.78;;
20772;SDS011;10546;50.674;4.616;2022-08-19T16:42:54;3.22;;;2.15;;
20772;SDS011;10546;50.674;4.616;2022-08-19T16:45:20;7.63;;;2.30;;
20772;SDS011;10546;50.674;4.616;2022-08-19T16:47:46;4.95;;;2.20;;
20772;SDS011;10546;50.674;4.616;2022-08-19T16:50:12;4.75;;;2.65;;
20772;SDS011;10546;50.674;4.616;2022-08-19T16:52:37;17.45;;;5.72;;
20772;SDS011;10546;50.674;4.616;2022-08-19T16:55:03;3.90;;;2.85;;
20772;SDS011;10546;50.674;4.616;2022-08-19T16:57:32;2.67;;;2.22;;
20772;SDS011;10546;50.674;4.616;2022-08-19T16:59:57;3.15;;;2.42;;
20772;SDS011;10546;50.674;4.616;2022-08-19T17:02:23;4.57;;;2.60;;
20772;SDS011;10546;50.674;4.616;2022-08-19T17:04:51;3.55;;;2.10;;
20772;SDS011;10546;50.674;4.616;2022-08-19T17:07:18;4.38;;;2.50;;
20772;SDS011;10546;50.674;4.616;2022-08-19T17:10:04;4.25;;;2.65;;
20772;SDS011;10546;50.674;4.616;2022-08-19T17:12:30;3.80;;;2.33;;
20772;SDS011;10546;50.674;4.616;2022-08-19T17:14:59;3.65;;;1.73;;
20772;SDS011;10546;50.674;4.616;2022-08-19T17:17:26;4.75;;;1.90;;
20772;SDS011;10546;50.674;4.616;2022-08-19T17:19:52;3.80;;;1.80;;
20772;SDS011;10546;50.674;4.616;2022-08-19T17:22:18;3.22;;;1.80;;
20772;SDS011;10546;50.674;4.616;2022-08-19T17:24:44;2.35;;;1.90;;
20772;SDS011;10546;50.674;4.616;2022-08-19T17:27:09;2.38;;;1.55;;
20772;SDS011;10546;50.674;4.616;2022-08-19T17:29:36;3.22;;;1.55;;
20772;SDS011;10546;50.674;4.616;2022-08-19T17:32:02;3.65;;;1.83;;
20772;SDS011;10546;50.674;4.616;2022-08-19T17:34:31;2.30;;;1.70;;
20772;SDS011;10546;50.674;4.616;2022-08-19T17:36:57;2.83;;;1.70;;
20772;SDS011;10546;50.674;4.616;2022-08-19T17:39:32;3.03;;;1.60;;
20772;SDS011;10546;50.674;4.616;2022-08-19T17:41:59;2.45;;;2.08;;
20772;SDS011;10546;50.674;4.616;2022-08-19T17:44:24;3.50;;;1.80;;
20772;SDS011;10546;50.674;4.616;2022-08-19T17:46:50;3.55;;;1.73;;
20772;SDS011;10546;50.674;4.616;2022-08-19T17:49:17;2.38;;;1.50;;
20772;SDS011;10546;50.674;4.616;2022-08-19T17:51:44;3.70;;;1.88;;
20772;SDS011;10546;50.674;4.616;2022-08-19T17:54:12;3.15;;;1.98;;
20772;SDS011;10546;50.674;4.616;2022-08-19T17:56:40;6.57;;;2.50;;
20772;SDS011;10546;50.674;4.616;2022-08-19T17:59:06;6.32;;;2.22;;
20772;SDS011;10546;50.674;4.616;2022-08-19T18:01:32;2.67;;;2.08;;
20772;SDS011;10546;50.674;4.616;2022-08-19T18:03:58;3.50;;;2.55;;
20772;SDS011;10546;50.674;4.616;2022-08-19T18:06:25;2.20;;;1.90;;
20772;SDS011;10546;50.674;4.616;2022-08-19T18:08:52;3.22;;;1.80;;
20772;SDS011;10546;50.674;4.616;2022-08-19T18:11:18;4.40;;;1.70;;
20772;SDS011;10546;50.674;4.616;2022-08-19T18:13:45;3.83;;;1.67;;
20772;SDS011;10546;50.674;4.616;2022-08-19T18:16:10;2.63;;;1.58;;
20772;SDS011;10546;50.674;4.616;2022-08-19T18:18:37;4.90;;;1.90;;
20772;SDS011;10546;50.674;4.616;2022-08-19T18:21:04;4.50;;;1.88;;
20772;SDS011;10546;50.674;4.616;2022-08-19T18:23:30;5.80;;;2.00;;
20772;SDS011;10546;50.674;4.616;2022-08-19T18:25:57;3.25;;;2.10;;
20772;SDS011;10546;50.674;4.616;2022-08-19T18:28:24;2.97;;;2.00;;
20772;SDS011;10546;50.674;4.616;2022-08-19T18:30:50;3.85;;;2.10;;
20772;SDS011;10546;50.674;4.616;2022-08-19T18:33:16;5.20;;;2.38;;
20772;SDS011;10546;50.674;4.616;2022-08-19T18:35:43;2.88;;;1.80;;
20772;SDS011;10546;50.674;4.616;2022-08-19T18:38:15;8.23;;;2.30;;
20772;SDS011;10546;50.674;4.616;2022-08-19T18:41:00;3.00;;;2.30;;
20772;SDS011;10546;50.674;4.616;2022-08-19T18:43:46;2.97;;;2.28;;
20772;SDS011;10546;50.674;4.616;2022-08-19T18:46:30;5.18;;;2.50;;
20772;SDS011;10546;50.674;4.616;2022-08-19T18:49:17;6.25;;;2.38;;
20772;SDS011;10546;50.674;4.616;2022-08-19T18:51:52;4.15;;;2.25;;
20772;SDS011;10546;50.674;4.616;2022-08-19T18:54:19;2.72;;;1.92;;
20772;SDS011;10546;50.674;4.616;2022-08-19T18:56:45;3.58;;;2.30;;
20772;SDS011;10546;50.674;4.616;2022-08-19T18:59:11;3.85;;;2.47;;
20772;SDS011;10546;50.674;4.616;2022-08-19T19:01:39;4.07;;;2.20;;
20772;SDS011;10546;50.674;4.616;2022-08-19T19:04:14;2.85;;;1.98;;
20772;SDS011;10546;50.674;4.616;2022-08-19T19:06:41;3.22;;;2.28;;
20772;SDS011;10546;50.674;4.616;2022-08-19T19:09:08;3.90;;;2.17;;
20772;SDS011;10546;50.674;4.616;2022-08-19T19:11:38;5.63;;;3.60;;
20772;SDS011;10546;50.674;4.616;2022-08-19T19:14:08;6.97;;;3.20;;
20772;SDS011;10546;50.674;4.616;2022-08-19T19:16:36;5.43;;;3.05;;
20772;SDS011;10546;50.674;4.616;2022-08-19T19:19:04;3.78;;;2.80;;
20772;SDS011;10546;50.674;4.616;2022-08-19T19:21:38;4.32;;;2.92;;
20772;SDS011;10546;50.674;4.616;2022-08-19T19:24:32;6.22;;;2.97;;
20772;SDS011;10546;50.674;4.616;2022-08-19T19:26:58;4.07;;;2.90;;
20772;SDS011;10546;50.674;4.616;2022-08-19T19:29:29;5.85;;;3.13;;
20772;SDS011;10546;50.674;4.616;2022-08-19T19:31:54;6.80;;;2.60;;
20772;SDS011;10546;50.674;4.616;2022-08-19T19:34:20;4.00;;;2.50;;
20772;SDS011;10546;50.674;4.616;2022-08-19T19:36:48;4.40;;;2.47;;
20772;SDS011;10546;50.674;4.616;2022-08-19T19:39:15;4.65;;;2.92;;
20772;SDS011;10546;50.674;4.616;2022-08-19T19:41:42;4.95;;;3.08;;
20772;SDS011;10546;50.674;4.616;2022-08-19T19:44:08;7.93;;;3.10;;
20772;SDS011;10546;50.674;4.616;2022-08-19T19:46:35;6.03;;;2.92;;
20772;SDS011;10546;50.674;4.616;2022-08-19T19:49:03;6.03;;;2.85;;
20772;SDS011;10546;50.674;4.616;2022-08-19T19:51:30;4.60;;;2.50;;
20772;SDS011;10546;50.674;4.616;2022-08-19T19:53:57;3.70;;;2.30;;
20772;SDS011;10546;50.674;4.616;2022-08-19T19:56:23;3.95;;;2.47;;
20772;SDS011;10546;50.674;4.616;2022-08-19T19:58:49;3.47;;;1.98;;
20772;SDS011;10546;50.674;4.616;2022-08-19T20:01:18;2.88;;;2.00;;
20772;SDS011;10546;50.674;4.616;2022-08-19T20:03:45;3.70;;;1.95;;
20772;SDS011;10546;50.674;4.616;2022-08-19T20:06:12;3.05;;;2.17;;
20772;SDS011;10546;50.674;4.616;2022-08-19T20:08:39;2.30;;;1.73;;
20772;SDS011;10546;50.674;4.616;2022-08-19T20:11:43;9.20;;;1.98;;
20772;SDS011;10546;50.674;4.616;2022-08-19T20:14:13;4.93;;;2.08;;
20772;SDS011;10546;50.674;4.616;2022-08-19T20:16:43;4.82;;;1.92;;
20772;SDS011;10546;50.674;4.616;2022-08-19T20:19:11;5.90;;;2.33;;
20772;SDS011;10546;50.674;4.616;2022-08-19T20:21:39;6.18;;;3.65;;
20772;SDS011;10546;50.674;4.616;2022-08-19T20:24:08;6.05;;;2.60;;
20772;SDS011;10546;50.674;4.616;2022-08-19T20:26:39;4.13;;;2.60;;
20772;SDS011;10546;50.674;4.616;2022-08-19T20:29:06;5.40;;;2.78;;
20772;SDS011;10546;50.674;4.616;2022-08-19T20:31:32;7.88;;;2.92;;
20772;SDS011;10546;50.674;4.616;2022-08-19T20:33:58;5.13;;;2.47;;
20772;SDS011;10546;50.674;4.616;2022-08-19T20:36:24;6.97;;;2.45;;
20772;SDS011;10546;50.674;4.616;2022-08-19T20:38:50;5.55;;;2.33;;
20772;SDS011;10546;50.674;4.616;2022-08-19T20:41:16;5.07;;;2.30;;
20772;SDS011;10546;50.674;4.616;2022-08-19T20:43:44;4.97;;;2.45;;
20772;SDS011;10546;50.674;4.616;2022-08-19T20:46:10;4.05;;;1.90;;
20772;SDS011;10546;50.674;4.616;2022-08-19T20:48:37;2.78;;;1.90;;
20772;SDS011;10546;50.674;4.616;2022-08-19T20:51:04;4.80;;;1.80;;
20772;SDS011;10546;50.674;4.616;2022-08-19T20:53:30;3.55;;;2.10;;